aviador You're here:

LZIB Decoded Metar

BRATISLAVA in SLOVAKIA
Report Time2018-06-24 22:30:00
UTC Time2018-06-24 22:48:30
Flight Rules vfr VFR
Wind340° at 05 kt
W.Decomp.*RWY 31: 4.5 kt HW 2.3 kt RCW
RWY 04: 2.3 kt HW 4.5 kt LCW
W.Rank340° ranks 8
Current wind is below 340° avg. (9.0)
Visibility9999 m
Phenomena:N/A
Clouds:N/A
Expected CloudBase > 2,800 ft AGL from Temp-Dew spread
CeilingNone
Temp15°C (ISA +1)
Dew Point08°C (63% RH)
AAT12.7°C
QNH1018 hPa
Density Alt522 ft
Elevation440 ft
Report Wrong Elevation
Raw Report
LZIB 242230Z 34005KT CAVOK 15/08 Q1018=

Extra information for LZIB:More info

Metar Taf Metar & Taf Last 4 Metars F.Rules Stats Wind Profile Meteogram Temp Stats Airport Information Weather charts Add Link Nearby VenuesMetar ALERT Operation Metar Decoded Social comments